createdAt,value
2017-12-30T00:41:47.963Z,2.00
2017-12-30T01:54:10.413Z,1.70
2017-12-30T01:56:39.117Z,1.60
2017-12-30T02:01:38.290Z,1.80
2017-12-30T02:19:05.538Z,1.80
2017-12-30T02:21:33.587Z,1.50
2017-12-30T02:24:03.066Z,1.40
2017-12-30T02:26:33.274Z,1.30
2017-12-30T02:29:01.983Z,1.30
2017-12-30T02:31:30.670Z,1.30
2017-12-30T02:33:59.432Z,1.20
2017-12-30T02:36:28.138Z,1.20
2017-12-30T02:38:56.858Z,1.10
2017-12-30T02:41:25.612Z,1.10
2017-12-30T02:43:54.311Z,1.00
2017-12-30T02:46:23.082Z,0.90
2017-12-30T02:48:51.958Z,1.00
2017-12-30T02:51:20.714Z,0.90
2017-12-30T02:53:49.492Z,1.00
2017-12-30T02:56:18.973Z,0.90
2017-12-30T02:58:47.677Z,0.80
2017-12-30T03:01:17.237Z,1.10
2017-12-30T03:03:45.930Z,1.10
2017-12-30T03:11:14.175Z,1.10
2017-12-30T03:13:42.871Z,1.40
2017-12-30T03:16:12.358Z,1.20
2017-12-30T03:18:41.043Z,1.10
2017-12-30T03:21:09.753Z,1.20
2017-12-30T03:23:39.237Z,1.20
2017-12-30T03:26:09.447Z,1.10
2017-12-30T03:28:38.142Z,1.10
2017-12-30T03:31:06.871Z,1.20
2017-12-30T03:33:35.563Z,1.20
2017-12-30T03:36:04.254Z,1.20
2017-12-30T03:38:32.970Z,1.30
2017-12-30T03:41:01.823Z,1.20
2017-12-30T03:43:31.499Z,1.10
2017-12-30T03:46:00.966Z,1.00
2017-12-30T03:48:29.853Z,1.00
2017-12-30T03:50:58.542Z,1.00
2017-12-30T03:53:27.297Z,1.10
2017-12-30T03:55:56.770Z,1.20
2017-12-30T03:58:25.794Z,1.10
2017-12-30T04:00:55.261Z,1.20
2017-12-30T04:03:23.968Z,1.20
2017-12-30T04:05:52.670Z,1.20
2017-12-30T04:08:21.386Z,1.10
2017-12-30T04:10:50.253Z,1.20
2017-12-30T04:13:19.727Z,1.10
2017-12-30T04:15:48.462Z,1.10
2017-12-30T04:18:17.181Z,1.10
2017-12-30T04:20:45.915Z,1.10
2017-12-30T04:23:14.622Z,1.20
2017-12-30T04:25:44.090Z,1.20
2017-12-30T04:28:12.933Z,1.10
2017-12-30T04:30:41.790Z,1.10
2017-12-30T04:33:10.511Z,1.10
2017-12-30T04:35:39.230Z,1.20
2017-12-30T04:40:37.758Z,1.20
2017-12-30T04:43:06.444Z,1.10
2017-12-30T04:45:35.161Z,1.00
2017-12-30T04:48:03.910Z,1.10
2017-12-30T04:50:32.606Z,1.10
2017-12-30T04:53:01.478Z,1.00
2017-12-30T04:55:30.183Z,1.00
2017-12-30T04:57:58.883Z,1.10
2017-12-30T05:00:27.794Z,1.10
2017-12-30T05:02:56.901Z,1.10
2017-12-30T05:05:25.598Z,1.10
2017-12-30T05:07:54.405Z,1.10
2017-12-30T05:10:23.102Z,1.20
2017-12-30T05:12:51.810Z,1.20
2017-12-30T05:15:20.514Z,1.30
2017-12-30T05:27:49.053Z,1.60
2017-12-30T05:30:17.745Z,1.60
2017-12-30T05:32:46.446Z,1.50
2017-12-30T05:37:44.873Z,1.70
2017-12-30T05:40:14.406Z,1.60
2017-12-30T05:42:43.098Z,1.60
2017-12-30T11:19:17.534Z,1.80
2017-12-30T11:21:46.879Z,4.50
2017-12-30T19:22:40.895Z,9.60
2017-12-30T19:25:10.103Z,9.50
2017-12-30T19:27:38.921Z,9.50
2017-12-30T19:30:07.466Z,9.50
2017-12-30T19:32:36.678Z,9.50
2017-12-30T19:35:05.902Z,9.70
2017-12-30T19:37:34.342Z,9.60
2017-12-30T19:40:03.706Z,9.60
2017-12-30T19:42:32.141Z,9.50
2017-12-30T19:45:01.367Z,9.70
2017-12-30T19:47:29.806Z,9.60
2017-12-30T19:49:59.751Z,9.40
2017-12-30T19:52:28.215Z,9.40
2017-12-30T19:54:57.426Z,9.50
2017-12-30T19:57:26.719Z,9.60
2017-12-30T19:59:55.966Z,9.60
2017-12-30T20:02:24.433Z,9.60
2017-12-30T20:04:53.693Z,9.70
2017-12-30T20:07:22.158Z,9.70
2017-12-30T20:09:50.591Z,9.70
2017-12-30T20:12:19.115Z,9.60
2017-12-30T20:14:47.556Z,9.60
2017-12-30T20:17:16.146Z,9.60
2017-12-30T20:19:44.615Z,9.60
2017-12-30T20:22:13.047Z,9.60
2017-12-30T20:24:41.523Z,9.50
2017-12-30T20:27:10.730Z,9.50
2017-12-30T20:29:39.320Z,9.40
2017-12-30T20:32:07.879Z,9.50
2017-12-30T20:34:36.325Z,9.50
2017-12-30T20:37:04.768Z,9.50
2017-12-30T20:39:33.287Z,9.50
2017-12-30T20:42:02.506Z,9.40
2017-12-30T20:44:31.905Z,9.50
2017-12-30T20:47:01.134Z,9.40
2017-12-30T20:49:29.761Z,9.40
2017-12-30T20:51:58.954Z,9.40
2017-12-30T20:54:27.386Z,9.30
2017-12-30T20:56:55.965Z,9.50
2017-12-30T20:59:24.410Z,9.50
2017-12-30T21:01:53.749Z,9.50
2017-12-30T21:04:22.185Z,9.40
2017-12-30T21:06:51.450Z,9.40
2017-12-30T21:09:19.703Z,9.40
2017-12-30T21:11:48.223Z,9.50
2017-12-30T21:14:16.650Z,9.50
2017-12-30T21:16:45.946Z,9.40
2017-12-30T21:19:15.179Z,9.40
2017-12-30T21:21:43.638Z,9.40
2017-12-30T21:24:12.839Z,9.50
2017-12-30T21:26:42.066Z,9.50
2017-12-30T21:34:09.460Z,9.40
2017-12-30T21:36:37.894Z,9.60
2017-12-30T21:41:35.838Z,9.60
2017-12-30T21:44:04.273Z,9.70
2017-12-30T21:46:33.497Z,9.70
2017-12-30T21:49:02.105Z,9.60
2017-12-30T21:51:30.538Z,9.60
2017-12-30T21:53:59.400Z,9.60
2017-12-30T21:56:27.826Z,9.60
2017-12-30T21:58:56.281Z,9.60
2017-12-30T22:01:25.474Z,9.80
2017-12-30T22:03:54.686Z,9.70
2017-12-30T22:06:23.915Z,9.80
2017-12-30T22:08:52.334Z,9.80
2017-12-30T22:13:50.240Z,9.70
2017-12-30T22:16:18.672Z,9.90
2017-12-30T22:21:16.648Z,9.80
2017-12-30T22:23:45.094Z,10.10
2017-12-30T22:28:42.970Z,9.90
2017-12-30T22:41:09.202Z,10.40
2017-12-30T22:43:38.466Z,10.30
2017-12-30T22:46:08.032Z,10.20
2017-12-30T22:48:36.489Z,10.50
2017-12-30T22:51:05.099Z,10.40
2017-12-30T22:53:33.529Z,10.50
2017-12-30T22:56:02.002Z,10.70
2017-12-30T22:58:30.567Z,10.70
2017-12-30T23:01:04.478Z,10.50
2017-12-30T23:03:32.923Z,10.50
2017-12-30T23:06:02.898Z,10.60
2017-12-30T23:08:31.354Z,10.70
2017-12-30T23:11:00.562Z,10.40
2017-12-30T23:13:29.015Z,10.40
2017-12-30T23:15:58.472Z,10.40
2017-12-30T23:18:28.419Z,10.40
2017-12-30T23:20:57.625Z,10.40
2017-12-30T23:23:26.059Z,10.40
2017-12-30T23:25:54.491Z,10.50
2017-12-30T23:28:22.929Z,10.50
2017-12-30T23:30:52.310Z,10.30
2017-12-30T23:33:20.739Z,10.20
2017-12-30T23:35:49.954Z,10.30
2017-12-30T23:38:19.141Z,10.40
2017-12-30T23:40:48.353Z,10.50
2017-12-30T23:43:17.729Z,10.40
2017-12-30T23:45:46.179Z,10.30
2017-12-30T23:48:14.618Z,10.50
2017-12-30T23:53:12.582Z,10.40
2017-12-30T23:58:11.233Z,10.30
